createdAt,value
2023-02-18T00:00:46.768Z,2.00
2023-02-18T00:03:32.079Z,1.70
2023-02-18T00:06:29.624Z,1.35
2023-02-18T00:09:15.392Z,1.58
2023-02-18T00:12:01.016Z,1.70
2023-02-18T00:14:46.417Z,1.27
2023-02-18T00:17:31.798Z,1.55
2023-02-18T00:20:17.455Z,1.48
2023-02-18T00:23:04.187Z,1.02
2023-02-18T00:25:49.828Z,1.30
2023-02-18T00:28:35.826Z,1.13
2023-02-18T00:31:24.946Z,1.17
2023-02-18T00:34:12.864Z,1.42
2023-02-18T00:36:58.725Z,1.60
2023-02-18T00:39:44.464Z,1.17
2023-02-18T00:42:29.985Z,1.00
2023-02-18T00:45:15.751Z,1.50
2023-02-18T00:48:01.090Z,2.08
2023-02-18T00:50:47.184Z,1.80
2023-02-18T00:53:33.768Z,1.15
2023-02-18T00:56:19.298Z,1.05
2023-02-18T00:59:05.157Z,2.15
2023-02-18T01:01:50.849Z,1.55
2023-02-18T01:04:36.233Z,1.10
2023-02-18T01:07:21.382Z,1.45
2023-02-18T01:10:07.582Z,1.08
2023-02-18T01:12:53.308Z,1.48
2023-02-18T01:15:43.158Z,1.02
2023-02-18T01:18:29.207Z,1.15
2023-02-18T01:21:15.377Z,1.50
2023-02-18T01:24:00.854Z,1.20
2023-02-18T01:26:46.063Z,0.80
2023-02-18T01:29:33.102Z,0.88
2023-02-18T01:32:20.150Z,0.75
2023-02-18T01:35:08.386Z,1.02
2023-02-18T01:37:53.879Z,1.08
2023-02-18T01:40:47.640Z,1.23
2023-02-18T01:43:34.484Z,1.23
2023-02-18T01:46:22.466Z,1.00
2023-02-18T01:49:09.715Z,0.63
2023-02-18T01:52:04.028Z,0.90
2023-02-18T01:54:53.364Z,0.63
2023-02-18T01:57:39.116Z,0.40
2023-02-18T02:00:24.704Z,1.02
2023-02-18T02:03:11.506Z,0.52
2023-02-18T02:05:56.934Z,0.60
2023-02-18T02:08:42.649Z,1.20
2023-02-18T02:12:04.609Z,0.68
2023-02-18T02:14:55.927Z,0.47
2023-02-18T02:17:55.360Z,0.60
2023-02-18T02:21:15.538Z,0.30
2023-02-18T02:24:24.509Z,0.40
2023-02-18T02:27:25.180Z,0.25
2023-02-18T02:30:13.600Z,0.40
2023-02-18T02:33:07.858Z,0.25
2023-02-18T02:35:59.454Z,0.50
2023-02-18T02:39:07.143Z,0.30
2023-02-18T02:42:01.531Z,0.38
2023-02-18T02:44:56.386Z,0.30
2023-02-18T02:47:53.391Z,0.30
2023-02-18T02:50:53.042Z,0.30
2023-02-18T02:53:42.202Z,0.40
2023-02-18T02:56:27.724Z,0.30
2023-02-18T02:59:19.862Z,0.30
2023-02-18T03:02:37.532Z,0.35
2023-02-18T03:05:29.144Z,0.30
2023-02-18T03:08:33.267Z,0.10
2023-02-18T03:11:21.532Z,0.20
2023-02-18T03:14:30.552Z,0.25
2023-02-18T03:17:29.644Z,0.30
2023-02-18T03:20:36.188Z,0.82
2023-02-18T03:23:35.396Z,0.40
2023-02-18T03:26:21.730Z,0.40
2023-02-18T03:29:10.466Z,0.70
2023-02-18T03:32:01.376Z,0.60
2023-02-18T03:34:51.967Z,0.75
2023-02-18T03:37:42.622Z,0.63
2023-02-18T03:40:30.455Z,0.95
2023-02-18T03:43:16.741Z,0.60
2023-02-18T03:46:03.590Z,0.95
2023-02-18T03:48:48.868Z,0.90
2023-02-18T03:51:34.288Z,2.08
2023-02-18T03:54:20.434Z,1.45
2023-02-18T03:57:05.949Z,1.50
2023-02-18T03:59:51.314Z,1.42
2023-02-18T04:02:36.595Z,1.33
2023-02-18T04:05:22.041Z,0.73
2023-02-18T04:08:07.532Z,0.60
2023-02-18T04:10:52.939Z,1.15
2023-02-18T04:13:38.546Z,1.45
2023-02-18T04:16:23.928Z,1.88
2023-02-18T04:19:09.299Z,0.85
2023-02-18T04:21:54.803Z,1.73
2023-02-18T04:24:40.170Z,1.20
2023-02-18T04:27:25.687Z,1.15
2023-02-18T04:30:11.919Z,1.45
2023-02-18T04:32:57.589Z,1.58
2023-02-18T04:35:43.008Z,1.50
2023-02-18T04:38:28.333Z,1.42
2023-02-18T04:41:13.801Z,1.40
2023-02-18T04:43:59.741Z,0.95
2023-02-18T04:46:45.264Z,2.20
2023-02-18T04:49:30.554Z,1.60
2023-02-18T04:52:15.974Z,1.25
2023-02-18T04:55:01.599Z,1.65
2023-02-18T04:57:46.970Z,1.17
2023-02-18T05:00:32.641Z,0.90
2023-02-18T05:03:17.992Z,0.90
2023-02-18T05:06:03.537Z,1.20
2023-02-18T05:08:49.224Z,1.63
2023-02-18T05:11:34.487Z,1.38
2023-02-18T05:14:20.149Z,1.50
2023-02-18T05:17:05.761Z,1.38
2023-02-18T05:19:50.994Z,1.38
2023-02-18T05:22:36.693Z,1.67
2023-02-18T05:25:22.500Z,1.73
2023-02-18T05:28:09.059Z,0.93
2023-02-18T05:30:55.183Z,1.38
2023-02-18T05:33:40.600Z,1.55
2023-02-18T05:36:26.023Z,1.45
2023-02-18T05:39:11.481Z,0.88
2023-02-18T05:41:57.145Z,1.08
2023-02-18T05:44:42.587Z,1.48
2023-02-18T05:47:27.995Z,1.40
2023-02-18T05:50:13.939Z,0.98
2023-02-18T05:52:59.888Z,1.30
2023-02-18T05:55:45.518Z,2.47
2023-02-18T05:58:31.061Z,1.67
2023-02-18T06:01:16.349Z,1.08
2023-02-18T06:04:01.651Z,1.40
2023-02-18T06:06:47.327Z,1.40
2023-02-18T06:09:32.930Z,1.15
2023-02-18T06:12:18.249Z,1.27
2023-02-18T06:15:03.761Z,1.58
2023-02-18T06:17:49.377Z,1.45
2023-02-18T06:20:34.752Z,1.15
2023-02-18T06:23:20.144Z,1.05
2023-02-18T06:26:05.844Z,1.33
2023-02-18T06:28:51.446Z,0.85
2023-02-18T06:31:37.022Z,1.08
2023-02-18T06:34:22.701Z,1.35
2023-02-18T06:37:08.220Z,0.98
2023-02-18T06:39:53.971Z,0.90
2023-02-18T06:42:39.356Z,1.42
2023-02-18T06:45:24.988Z,1.15
2023-02-18T06:48:11.257Z,1.35
2023-02-18T06:50:57.021Z,0.85
2023-02-18T06:53:44.096Z,1.20
2023-02-18T06:56:31.031Z,1.10
2023-02-18T06:59:17.027Z,0.70
2023-02-18T07:02:02.574Z,1.25
2023-02-18T07:04:47.969Z,1.52
2023-02-18T07:07:33.388Z,1.42
2023-02-18T07:10:18.976Z,1.10
2023-02-18T07:13:05.044Z,1.50
2023-02-18T07:15:50.635Z,1.58
2023-02-18T07:18:36.047Z,1.08
2023-02-18T07:21:21.770Z,1.33
2023-02-18T07:24:07.178Z,1.85
2023-02-18T07:26:52.912Z,1.67
2023-02-18T07:29:38.196Z,2.13
2023-02-18T07:32:23.742Z,1.85
2023-02-18T07:35:13.386Z,2.05
2023-02-18T07:37:58.937Z,1.63
2023-02-18T07:40:45.435Z,2.00
2023-02-18T07:43:31.118Z,1.20
2023-02-18T07:46:17.070Z,1.67
2023-02-18T07:49:02.718Z,1.48
2023-02-18T07:51:49.183Z,1.80
2023-02-18T07:54:34.884Z,1.05
2023-02-18T07:57:20.505Z,2.10
2023-02-18T08:00:06.703Z,1.50
2023-02-18T08:02:57.634Z,1.55
2023-02-18T08:05:43.166Z,1.42
2023-02-18T08:08:31.458Z,1.20
2023-02-18T08:11:19.523Z,1.50
2023-02-18T08:14:06.217Z,0.68
2023-02-18T08:16:51.874Z,1.08
2023-02-18T08:19:37.539Z,0.95
2023-02-18T08:22:22.865Z,1.55
2023-02-18T08:25:09.165Z,1.40
2023-02-18T08:27:57.725Z,2.55
2023-02-18T08:30:48.337Z,1.27
2023-02-18T08:33:34.444Z,1.13
2023-02-18T08:36:20.414Z,1.25
2023-02-18T08:39:05.849Z,1.00
2023-02-18T08:41:51.361Z,1.70
2023-02-18T08:44:36.975Z,1.40
2023-02-18T08:48:17.523Z,1.83
2023-02-18T08:50:28.631Z,0.88
2023-02-18T08:53:14.068Z,1.52
2023-02-18T08:55:59.540Z,1.42
2023-02-18T08:58:45.002Z,2.05
2023-02-18T09:01:30.585Z,2.08
2023-02-18T09:04:16.803Z,1.38
2023-02-18T09:07:03.254Z,2.50
2023-02-18T09:09:48.457Z,2.10
2023-02-18T09:12:34.819Z,1.90
2023-02-18T09:15:20.230Z,1.20
2023-02-18T09:18:05.933Z,1.50
2023-02-18T09:20:51.631Z,2.72
2023-02-18T09:23:37.514Z,2.10
2023-02-18T09:26:23.574Z,1.55
2023-02-18T09:29:10.132Z,2.08
2023-02-18T09:31:55.832Z,1.77
2023-02-18T09:34:41.551Z,1.77
2023-02-18T09:37:26.727Z,1.77
2023-02-18T09:40:28.051Z,1.55
2023-02-18T09:43:50.732Z,1.70
2023-02-18T09:49:59.106Z,1.88
2023-02-18T09:52:44.657Z,1.85
2023-02-18T09:55:38.980Z,2.15
2023-02-18T09:58:29.643Z,2.20
2023-02-18T10:01:21.201Z,2.30
2023-02-18T10:04:45.060Z,2.13
2023-02-18T10:07:33.324Z,2.22
2023-02-18T10:10:31.461Z,1.70
2023-02-18T10:13:28.361Z,2.47
2023-02-18T10:16:18.996Z,2.88
2023-02-18T10:19:22.194Z,2.45
2023-02-18T10:22:11.340Z,2.55
2023-02-18T10:25:01.094Z,1.92
2023-02-18T10:27:48.758Z,1.83
2023-02-18T10:30:41.412Z,2.65
2023-02-18T10:33:36.852Z,2.40
2023-02-18T10:36:27.286Z,2.33
2023-02-18T10:39:33.013Z,2.17
2023-02-18T10:42:25.114Z,1.83
2023-02-18T10:45:32.705Z,2.40
2023-02-18T10:48:23.992Z,1.92
2023-02-18T10:51:31.122Z,1.60
2023-02-18T10:54:16.737Z,1.95
2023-02-18T10:57:04.865Z,2.72
2023-02-18T11:00:01.225Z,2.00
2023-02-18T11:02:47.581Z,2.17
2023-02-18T11:05:36.726Z,2.20
2023-02-18T11:08:26.409Z,1.58
2023-02-18T11:11:21.310Z,1.67
2023-02-18T11:14:08.816Z,2.20
2023-02-18T11:16:56.552Z,2.00
2023-02-18T11:19:42.250Z,1.48
2023-02-18T11:22:39.852Z,2.58
2023-02-18T11:25:33.665Z,2.42
2023-02-18T11:28:19.065Z,1.92
2023-02-18T11:31:05.434Z,2.33
2023-02-18T11:33:54.825Z,1.88
2023-02-18T11:36:40.170Z,3.22
2023-02-18T11:39:28.404Z,1.00
2023-02-18T11:42:16.985Z,1.77
2023-02-18T11:45:05.142Z,1.42
2023-02-18T11:47:59.776Z,1.80
2023-02-18T11:50:46.184Z,1.98
2023-02-18T11:53:36.911Z,1.80
2023-02-18T11:56:22.545Z,2.22
2023-02-18T11:59:10.756Z,1.92
2023-02-18T12:02:11.326Z,1.52
2023-02-18T12:05:01.237Z,1.83
2023-02-18T12:07:58.914Z,1.65
2023-02-18T12:10:49.435Z,2.47
2023-02-18T12:14:04.345Z,1.90
2023-02-18T12:17:07.839Z,2.97
2023-02-18T12:20:02.138Z,1.85
2023-02-18T12:23:17.353Z,2.30
2023-02-18T12:26:09.070Z,1.45
2023-02-18T12:29:06.449Z,2.15
2023-02-18T12:32:23.393Z,1.80
2023-02-18T12:35:32.249Z,1.40
2023-02-18T12:38:20.722Z,1.63
2023-02-18T12:41:52.890Z,2.08
2023-02-18T12:45:02.636Z,1.48
2023-02-18T12:48:09.502Z,1.20
2023-02-18T12:51:15.311Z,1.67
2023-02-18T12:54:22.845Z,1.65
2023-02-18T12:57:29.920Z,1.63
2023-02-18T13:00:40.270Z,1.50
2023-02-18T13:03:41.628Z,1.15
2023-02-18T13:06:57.979Z,1.58
2023-02-18T13:10:02.162Z,1.20
2023-02-18T13:13:11.492Z,1.60
2023-02-18T13:16:04.386Z,0.93
2023-02-18T13:19:19.868Z,1.45
2023-02-18T13:22:09.118Z,1.52
2023-02-18T13:24:57.966Z,1.90
2023-02-18T13:27:51.170Z,1.33
2023-02-18T13:30:48.969Z,1.05
2023-02-18T13:33:58.889Z,1.48
2023-02-18T13:37:01.392Z,1.20
2023-02-18T13:40:10.058Z,1.15
2023-02-18T13:43:27.515Z,1.13
2023-02-18T13:46:19.212Z,0.75
2023-02-18T13:49:13.089Z,0.75
2023-02-18T13:52:00.053Z,0.73
2023-02-18T13:54:49.504Z,0.73
2023-02-18T13:57:39.104Z,0.83
2023-02-18T14:00:40.582Z,0.55
2023-02-18T14:03:51.024Z,1.10
2023-02-18T14:06:39.005Z,0.63
2023-02-18T14:09:24.490Z,0.73
2023-02-18T14:12:30.968Z,0.88
2023-02-18T14:15:19.294Z,0.80
2023-02-18T14:18:07.749Z,0.70
2023-02-18T14:21:05.190Z,0.40
2023-02-18T14:23:59.805Z,0.50
2023-02-18T14:26:49.686Z,0.90
2023-02-18T14:29:35.073Z,0.60
2023-02-18T14:32:21.719Z,0.60
2023-02-18T14:35:37.981Z,0.80
2023-02-18T14:38:23.775Z,0.40
2023-02-18T14:41:33.923Z,0.70
2023-02-18T14:44:54.794Z,0.50
2023-02-18T14:48:14.144Z,0.75
2023-02-18T14:51:01.270Z,0.47
2023-02-18T14:53:47.979Z,0.60
2023-02-18T14:56:39.745Z,0.90
2023-02-18T14:59:34.370Z,0.50
2023-02-18T15:02:24.922Z,0.77
2023-02-18T15:05:21.917Z,1.00
2023-02-18T15:08:16.050Z,0.80
2023-02-18T15:11:06.089Z,0.88
2023-02-18T15:13:51.973Z,1.90
2023-02-18T15:16:37.574Z,1.48
2023-02-18T15:19:26.229Z,1.65
2023-02-18T15:22:19.446Z,1.55
2023-02-18T15:25:05.061Z,2.10
2023-02-18T15:27:52.321Z,1.85
2023-02-18T15:30:39.254Z,1.27
2023-02-18T15:33:25.461Z,2.45
2023-02-18T15:36:14.772Z,1.88
2023-02-18T15:39:00.721Z,1.83
2023-02-18T15:41:48.243Z,2.00
2023-02-18T15:44:36.294Z,1.27
2023-02-18T15:47:22.965Z,1.42
2023-02-18T15:50:18.844Z,1.50
2023-02-18T15:53:16.817Z,1.30
2023-02-18T15:56:07.073Z,2.35
2023-02-18T15:59:07.563Z,2.45
2023-02-18T16:02:20.337Z,1.92
2023-02-18T16:05:13.860Z,1.60
2023-02-18T16:08:05.422Z,2.47
2023-02-18T16:10:58.208Z,1.55
2023-02-18T16:13:48.262Z,2.50
2023-02-18T16:16:36.089Z,1.83
2023-02-18T16:19:25.564Z,1.70
2023-02-18T16:22:43.043Z,1.73
2023-02-18T16:25:54.716Z,1.20
2023-02-18T16:28:42.855Z,1.70
2023-02-18T16:31:28.494Z,1.45
2023-02-18T16:34:13.728Z,1.55
2023-02-18T16:37:17.745Z,1.70
2023-02-18T16:40:05.613Z,2.17
2023-02-18T16:42:52.067Z,1.83
2023-02-18T16:45:48.411Z,1.23
2023-02-18T16:48:43.702Z,1.58
2023-02-18T16:51:34.814Z,1.55
2023-02-18T16:54:20.377Z,1.30
2023-02-18T16:57:05.995Z,2.38
2023-02-18T16:59:51.475Z,3.28
2023-02-18T17:02:37.095Z,3.40
2023-02-18T17:05:27.097Z,2.25
2023-02-18T17:08:15.451Z,1.73
2023-02-18T17:11:00.849Z,1.90
2023-02-18T17:13:46.823Z,1.52
2023-02-18T17:16:32.245Z,2.20
2023-02-18T17:19:17.722Z,3.10
2023-02-18T17:22:03.141Z,4.97
2023-02-18T17:24:48.460Z,1.73
2023-02-18T17:27:34.025Z,3.10
2023-02-18T17:30:19.945Z,3.40
2023-02-18T17:33:06.879Z,2.58
2023-02-18T17:35:52.262Z,3.03
2023-02-18T17:38:38.317Z,4.60
2023-02-18T17:41:23.809Z,2.80
2023-02-18T17:44:20.677Z,4.38
2023-02-18T17:47:06.421Z,3.90
2023-02-18T17:49:52.041Z,3.40
2023-02-18T17:52:37.344Z,2.97
2023-02-18T17:55:29.200Z,4.13
2023-02-18T17:58:16.106Z,5.13
2023-02-18T18:01:01.726Z,3.65
2023-02-18T18:03:47.125Z,2.67
2023-02-18T18:06:36.177Z,2.88
2023-02-18T18:09:21.428Z,3.72
2023-02-18T18:12:07.138Z,4.03
2023-02-18T18:14:52.591Z,4.35
2023-02-18T18:17:37.920Z,2.55
2023-02-18T18:20:25.719Z,2.63
2023-02-18T18:23:13.394Z,3.13
2023-02-18T18:25:59.855Z,3.47
2023-02-18T18:28:45.633Z,3.92
2023-02-18T18:31:32.282Z,3.03
2023-02-18T18:34:17.818Z,3.90
2023-02-18T18:37:03.531Z,3.47
2023-02-18T18:39:48.836Z,4.05
2023-02-18T18:42:34.411Z,5.60
2023-02-18T18:45:32.208Z,4.82
2023-02-18T18:48:18.489Z,3.47
2023-02-18T18:51:04.813Z,3.60
2023-02-18T18:53:50.537Z,4.80
2023-02-18T18:56:37.945Z,1.85
2023-02-18T18:59:23.568Z,2.30
2023-02-18T19:02:17.230Z,3.38
2023-02-18T19:05:04.364Z,2.92
2023-02-18T19:07:50.215Z,2.15
2023-02-18T19:10:44.100Z,3.28
2023-02-18T19:13:32.033Z,2.20
2023-02-18T19:16:38.740Z,1.88
2023-02-18T19:19:24.759Z,2.08
2023-02-18T19:22:10.269Z,2.58
2023-02-18T19:24:55.636Z,1.30
2023-02-18T19:27:43.413Z,2.08
2023-02-18T19:30:32.927Z,2.85
2023-02-18T19:33:18.528Z,3.35
2023-02-18T19:36:09.492Z,2.50
2023-02-18T19:38:54.663Z,2.33
2023-02-18T19:41:40.153Z,4.07
2023-02-18T19:44:25.506Z,4.13
2023-02-18T19:47:10.886Z,3.65
2023-02-18T19:49:58.885Z,2.33
2023-02-18T19:52:44.430Z,2.35
2023-02-18T19:55:29.869Z,2.50
2023-02-18T19:58:15.187Z,2.15
2023-02-18T20:01:00.717Z,2.20
2023-02-18T20:03:47.410Z,2.75
2023-02-18T20:06:32.846Z,2.30
2023-02-18T20:09:18.216Z,2.53
2023-02-18T20:12:04.831Z,1.75
2023-02-18T20:14:51.310Z,2.67
2023-02-18T20:17:38.320Z,3.08
2023-02-18T20:20:23.857Z,2.78
2023-02-18T20:23:09.118Z,2.67
2023-02-18T20:25:54.501Z,2.40
2023-02-18T20:28:39.736Z,2.67
2023-02-18T20:31:25.226Z,2.42
2023-02-18T20:34:11.928Z,4.53
2023-02-18T20:36:57.406Z,3.20
2023-02-18T20:39:42.846Z,3.45
2023-02-18T20:42:28.092Z,2.13
2023-02-18T20:45:13.534Z,3.47
2023-02-18T20:47:59.024Z,3.10
2023-02-18T20:50:44.412Z,2.13
2023-02-18T20:53:31.581Z,2.60
2023-02-18T20:56:20.120Z,2.85
2023-02-18T20:59:05.454Z,3.58
2023-02-18T21:01:51.118Z,3.58
2023-02-18T21:04:36.322Z,2.75
2023-02-18T21:07:22.451Z,2.45
2023-02-18T21:10:08.294Z,1.83
2023-02-18T21:12:53.480Z,2.17
2023-02-18T21:15:38.733Z,1.90
2023-02-18T21:18:24.836Z,1.85
2023-02-18T21:21:11.736Z,1.75
2023-02-18T21:23:57.475Z,1.98
2023-02-18T21:26:43.045Z,1.58
2023-02-18T21:29:28.556Z,3.45
2023-02-18T21:32:14.238Z,2.83
2023-02-18T21:35:00.383Z,2.97
2023-02-18T21:37:46.060Z,1.65
2023-02-18T21:40:32.234Z,2.58
2023-02-18T21:43:17.861Z,2.88
2023-02-18T21:46:13.841Z,3.45
2023-02-18T21:49:02.525Z,1.98
2023-02-18T21:51:58.179Z,2.80
2023-02-18T21:54:47.270Z,2.20
2023-02-18T21:57:32.870Z,2.03
2023-02-18T22:00:21.154Z,3.10
2023-02-18T22:03:06.864Z,1.98
2023-02-18T22:05:52.259Z,2.35
2023-02-18T22:08:37.609Z,2.03
2023-02-18T22:11:22.979Z,2.05
2023-02-18T22:14:08.920Z,0.90
2023-02-18T22:16:54.706Z,2.40
2023-02-18T22:19:40.512Z,2.35
2023-02-18T22:22:26.016Z,1.92
2023-02-18T22:25:11.656Z,2.92
2023-02-18T22:27:56.889Z,1.92
2023-02-18T22:30:42.188Z,1.30
2023-02-18T22:33:27.711Z,2.28
2023-02-18T22:36:13.708Z,2.60
2023-02-18T22:39:02.936Z,2.50
2023-02-18T22:41:48.594Z,2.00
2023-02-18T22:44:33.977Z,2.92
2023-02-18T22:47:19.396Z,1.48
2023-02-18T22:50:04.948Z,2.33
2023-02-18T22:52:50.494Z,1.15
2023-02-18T22:55:35.760Z,1.40
2023-02-18T22:58:21.142Z,0.93
2023-02-18T23:01:07.567Z,0.98
2023-02-18T23:03:53.699Z,0.60
2023-02-18T23:06:40.963Z,1.02
2023-02-18T23:09:26.619Z,1.15
2023-02-18T23:12:11.801Z,1.02
2023-02-18T23:14:57.297Z,1.05
2023-02-18T23:17:42.620Z,0.90
2023-02-18T23:20:46.291Z,0.60
2023-02-18T23:23:37.197Z,0.90
2023-02-18T23:26:25.109Z,0.95
2023-02-18T23:29:11.383Z,0.90
2023-02-18T23:31:57.006Z,0.77
2023-02-18T23:34:42.388Z,0.80
2023-02-18T23:37:46.196Z,1.35
2023-02-18T23:40:33.111Z,1.15
2023-02-18T23:43:18.684Z,1.73
2023-02-18T23:46:04.125Z,0.73
2023-02-18T23:48:49.485Z,0.68
2023-02-18T23:51:34.765Z,1.10
2023-02-18T23:54:20.948Z,1.00
2023-02-18T23:57:06.602Z,1.48
2023-02-18T23:59:51.858Z,1.15
